sensor_id;sensor_type;location;lat;lon;timestamp;temperature;humidity
42755;DHT22;28407;51.830;5.684;2022-11-24T00:01:59;9.30;90.20
42755;DHT22;28407;51.830;5.684;2022-11-24T00:04:05;9.30;90.20
42755;DHT22;28407;51.830;5.684;2022-11-24T00:06:10;9.30;90.20
42755;DHT22;28407;51.830;5.684;2022-11-24T00:08:11;9.30;90.20
42755;DHT22;28407;51.830;5.684;2022-11-24T00:10:12;9.40;90.20
42755;DHT22;28407;51.830;5.684;2022-11-24T00:12:13;9.30;90.20
42755;DHT22;28407;51.830;5.684;2022-11-24T00:14:13;9.40;90.20
42755;DHT22;28407;51.830;5.684;2022-11-24T00:16:19;9.40;90.20
42755;DHT22;28407;51.830;5.684;2022-11-24T00:18:20;9.40;90.20
42755;DHT22;28407;51.830;5.684;2022-11-24T00:20:21;9.40;90.20
42755;DHT22;28407;51.830;5.684;2022-11-24T00:22:22;9.40;90.20
42755;DHT22;28407;51.830;5.684;2022-11-24T00:24:22;9.40;90.20
42755;DHT22;28407;51.830;5.684;2022-11-24T00:26:25;9.40;90.20
42755;DHT22;28407;51.830;5.684;2022-11-24T00:28:26;9.50;90.20
42755;DHT22;28407;51.830;5.684;2022-11-24T00:30:27;9.40;90.20
42755;DHT22;28407;51.830;5.684;2022-11-24T00:32:28;9.50;90.20
42755;DHT22;28407;51.830;5.684;2022-11-24T00:34:29;9.40;90.20
42755;DHT22;28407;51.830;5.684;2022-11-24T00:36:32;9.40;90.20
42755;DHT22;28407;51.830;5.684;2022-11-24T00:38:32;9.40;90.20
42755;DHT22;28407;51.830;5.684;2022-11-24T00:40:33;9.40;90.20
42755;DHT22;28407;51.830;5.684;2022-11-24T00:42:34;9.40;90.50
42755;DHT22;28407;51.830;5.684;2022-11-24T00:44:34;9.40;90.20
42755;DHT22;28407;51.830;5.684;2022-11-24T00:46:35;9.40;90.20
42755;DHT22;28407;51.830;5.684;2022-11-24T00:48:36;9.40;90.20
42755;DHT22;28407;51.830;5.684;2022-11-24T00:50:36;9.40;90.20
42755;DHT22;28407;51.830;5.684;2022-11-24T00:52:37;9.30;90.20
42755;DHT22;28407;51.830;5.684;2022-11-24T00:54:38;9.40;90.20
42755;DHT22;28407;51.830;5.684;2022-11-24T00:56:39;9.30;90.20
42755;DHT22;28407;51.830;5.684;2022-11-24T00:58:40;9.30;90.20
42755;DHT22;28407;51.830;5.684;2022-11-24T01:00:41;9.30;90.20
42755;DHT22;28407;51.830;5.684;2022-11-24T01:02:41;9.30;90.10
42755;DHT22;28407;51.830;5.684;2022-11-24T01:04:42;9.30;90.20
42755;DHT22;28407;51.830;5.684;2022-11-24T01:06:42;9.30;90.20
42755;DHT22;28407;51.830;5.684;2022-11-24T01:08:44;9.20;90.10
42755;DHT22;28407;51.830;5.684;2022-11-24T01:10:44;9.20;90.10
42755;DHT22;28407;51.830;5.684;2022-11-24T01:12:45;9.30;90.20
42755;DHT22;28407;51.830;5.684;2022-11-24T01:14:47;9.20;90.10
42755;DHT22;28407;51.830;5.684;2022-11-24T01:16:47;9.30;90.10
42755;DHT22;28407;51.830;5.684;2022-11-24T01:18:48;9.20;90.10
42755;DHT22;28407;51.830;5.684;2022-11-24T01:20:49;9.20;90.10
42755;DHT22;28407;51.830;5.684;2022-11-24T01:22:49;9.20;90.10
42755;DHT22;28407;51.830;5.684;2022-11-24T01:24:50;9.20;90.10
42755;DHT22;28407;51.830;5.684;2022-11-24T01:26:51;9.20;90.10
42755;DHT22;28407;51.830;5.684;2022-11-24T01:28:53;9.20;90.10
42755;DHT22;28407;51.830;5.684;2022-11-24T01:31:02;9.30;90.10
42755;DHT22;28407;51.830;5.684;2022-11-24T01:33:03;9.20;90.10
42755;DHT22;28407;51.830;5.684;2022-11-24T01:35:05;9.30;90.10
42755;DHT22;28407;51.830;5.684;2022-11-24T01:37:06;9.20;90.00
42755;DHT22;28407;51.830;5.684;2022-11-24T01:39:06;9.20;90.00
42755;DHT22;28407;51.830;5.684;2022-11-24T01:41:13;9.20;90.00
42755;DHT22;28407;51.830;5.684;2022-11-24T01:43:19;9.20;90.00
42755;DHT22;28407;51.830;5.684;2022-11-24T01:45:38;9.20;90.00
42755;DHT22;28407;51.830;5.684;2022-11-24T01:47:40;9.20;90.00
42755;DHT22;28407;51.830;5.684;2022-11-24T01:49:44;9.20;90.00
42755;DHT22;28407;51.830;5.684;2022-11-24T01:51:58;9.20;90.00
42755;DHT22;28407;51.830;5.684;2022-11-24T01:54:25;9.20;90.00
42755;DHT22;28407;51.830;5.684;2022-11-24T01:56:27;9.20;90.00
42755;DHT22;28407;51.830;5.684;2022-11-24T01:58:31;9.20;90.00
42755;DHT22;28407;51.830;5.684;2022-11-24T02:00:33;9.10;90.00
42755;DHT22;28407;51.830;5.684;2022-11-24T02:02:35;9.20;90.00
42755;DHT22;28407;51.830;5.684;2022-11-24T02:04:37;9.10;90.00
42755;DHT22;28407;51.830;5.684;2022-11-24T02:06:40;9.10;90.00
42755;DHT22;28407;51.830;5.684;2022-11-24T02:09:25;9.10;90.00
42755;DHT22;28407;51.830;5.684;2022-11-24T02:11:32;9.10;90.00
42755;DHT22;28407;51.830;5.684;2022-11-24T02:13:35;9.10;90.00
42755;DHT22;28407;51.830;5.684;2022-11-24T02:15:37;9.10;90.00
42755;DHT22;28407;51.830;5.684;2022-11-24T02:17:37;9.20;90.00
42755;DHT22;28407;51.830;5.684;2022-11-24T02:21:39;9.10;89.90
42755;DHT22;28407;51.830;5.684;2022-11-24T02:24:05;9.20;90.00
42755;DHT22;28407;51.830;5.684;2022-11-24T02:28:26;9.20;90.20
42755;DHT22;28407;51.830;5.684;2022-11-24T02:30:28;9.20;89.90
42755;DHT22;28407;51.830;5.684;2022-11-24T02:32:30;9.20;89.80
42755;DHT22;28407;51.830;5.684;2022-11-24T02:34:32;9.20;89.80
42755;DHT22;28407;51.830;5.684;2022-11-24T02:36:33;9.20;89.80
42755;DHT22;28407;51.830;5.684;2022-11-24T02:38:34;9.30;89.80
42755;DHT22;28407;51.830;5.684;2022-11-24T02:40:35;9.20;89.80
42755;DHT22;28407;51.830;5.684;2022-11-24T02:42:40;9.20;89.80
42755;DHT22;28407;51.830;5.684;2022-11-24T02:44:46;9.20;89.80
42755;DHT22;28407;51.830;5.684;2022-11-24T02:46:47;9.20;89.80
42755;DHT22;28407;51.830;5.684;2022-11-24T02:48:48;9.20;89.80
42755;DHT22;28407;51.830;5.684;2022-11-24T02:50:48;9.20;89.80
42755;DHT22;28407;51.830;5.684;2022-11-24T02:52:49;9.20;89.80
42755;DHT22;28407;51.830;5.684;2022-11-24T02:54:50;9.20;89.80
42755;DHT22;28407;51.830;5.684;2022-11-24T02:56:51;9.20;89.80
42755;DHT22;28407;51.830;5.684;2022-11-24T02:58:52;9.20;89.80
42755;DHT22;28407;51.830;5.684;2022-11-24T03:00:52;9.20;89.80
42755;DHT22;28407;51.830;5.684;2022-11-24T03:02:53;9.20;89.80
42755;DHT22;28407;51.830;5.684;2022-11-24T03:04:54;9.20;89.80
42755;DHT22;28407;51.830;5.684;2022-11-24T03:06:55;9.20;89.80
42755;DHT22;28407;51.830;5.684;2022-11-24T03:08:55;9.20;89.80
42755;DHT22;28407;51.830;5.684;2022-11-24T03:10:56;9.20;89.70
42755;DHT22;28407;51.830;5.684;2022-11-24T03:12:57;9.20;89.70
42755;DHT22;28407;51.830;5.684;2022-11-24T03:14:57;9.20;89.60
42755;DHT22;28407;51.830;5.684;2022-11-24T03:16:58;9.20;89.70
42755;DHT22;28407;51.830;5.684;2022-11-24T03:18:59;9.20;89.60
42755;DHT22;28407;51.830;5.684;2022-11-24T03:21:00;9.20;89.60
42755;DHT22;28407;51.830;5.684;2022-11-24T03:23:00;9.20;89.60
42755;DHT22;28407;51.830;5.684;2022-11-24T03:25:01;9.20;89.60
42755;DHT22;28407;51.830;5.684;2022-11-24T03:27:02;9.20;89.60
42755;DHT22;28407;51.830;5.684;2022-11-24T03:29:02;9.20;90.00
42755;DHT22;28407;51.830;5.684;2022-11-24T03:31:04;9.20;89.60
42755;DHT22;28407;51.830;5.684;2022-11-24T03:33:04;9.20;89.50
42755;DHT22;28407;51.830;5.684;2022-11-24T03:35:07;9.20;90.00
42755;DHT22;28407;51.830;5.684;2022-11-24T03:37:08;9.20;89.60
42755;DHT22;28407;51.830;5.684;2022-11-24T03:39:08;9.20;89.60
42755;DHT22;28407;51.830;5.684;2022-11-24T03:41:09;9.20;89.60
42755;DHT22;28407;51.830;5.684;2022-11-24T03:43:10;9.20;89.60
42755;DHT22;28407;51.830;5.684;2022-11-24T03:45:11;9.20;89.70
42755;DHT22;28407;51.830;5.684;2022-11-24T03:47:11;9.20;89.70
42755;DHT22;28407;51.830;5.684;2022-11-24T03:49:12;9.10;89.60
42755;DHT22;28407;51.830;5.684;2022-11-24T03:51:13;9.10;89.70
42755;DHT22;28407;51.830;5.684;2022-11-24T03:53:13;9.10;89.70
42755;DHT22;28407;51.830;5.684;2022-11-24T03:55:14;9.10;89.70
42755;DHT22;28407;51.830;5.684;2022-11-24T03:57:15;9.20;89.70
42755;DHT22;28407;51.830;5.684;2022-11-24T03:59:15;9.10;89.60
42755;DHT22;28407;51.830;5.684;2022-11-24T04:01:16;9.20;89.70
42755;DHT22;28407;51.830;5.684;2022-11-24T04:03:18;9.20;89.70
42755;DHT22;28407;51.830;5.684;2022-11-24T04:05:19;9.20;89.70
42755;DHT22;28407;51.830;5.684;2022-11-24T04:07:20;9.20;89.70
42755;DHT22;28407;51.830;5.684;2022-11-24T04:09:21;9.20;89.70
42755;DHT22;28407;51.830;5.684;2022-11-24T04:11:21;9.10;89.60
42755;DHT22;28407;51.830;5.684;2022-11-24T04:13:41;9.10;89.60
42755;DHT22;28407;51.830;5.684;2022-11-24T04:15:42;9.10;89.60
42755;DHT22;28407;51.830;5.684;2022-11-24T04:17:43;9.10;89.70
42755;DHT22;28407;51.830;5.684;2022-11-24T04:19:44;9.10;89.70
42755;DHT22;28407;51.830;5.684;2022-11-24T04:21:45;9.10;89.70
42755;DHT22;28407;51.830;5.684;2022-11-24T04:23:46;9.10;89.70
42755;DHT22;28407;51.830;5.684;2022-11-24T04:25:46;9.10;89.70
42755;DHT22;28407;51.830;5.684;2022-11-24T04:27:50;9.10;89.70
42755;DHT22;28407;51.830;5.684;2022-11-24T04:29:52;9.20;89.80
42755;DHT22;28407;51.830;5.684;2022-11-24T04:31:52;9.20;89.80
42755;DHT22;28407;51.830;5.684;2022-11-24T04:33:53;9.20;89.80
42755;DHT22;28407;51.830;5.684;2022-11-24T04:35:53;9.20;89.70
42755;DHT22;28407;51.830;5.684;2022-11-24T04:37:54;9.20;89.60
42755;DHT22;28407;51.830;5.684;2022-11-24T04:39:55;9.20;89.60
42755;DHT22;28407;51.830;5.684;2022-11-24T04:41:55;9.20;89.60
42755;DHT22;28407;51.830;5.684;2022-11-24T04:43:56;9.30;89.60
42755;DHT22;28407;51.830;5.684;2022-11-24T04:46:00;9.20;89.60
42755;DHT22;28407;51.830;5.684;2022-11-24T04:48:01;9.30;89.60
42755;DHT22;28407;51.830;5.684;2022-11-24T04:50:01;9.30;89.50
42755;DHT22;28407;51.830;5.684;2022-11-24T04:52:02;9.30;89.50
42755;DHT22;28407;51.830;5.684;2022-11-24T04:54:03;9.30;90.00
42755;DHT22;28407;51.830;5.684;2022-11-24T04:56:04;9.30;89.40
42755;DHT22;28407;51.830;5.684;2022-11-24T04:58:09;9.30;89.40
42755;DHT22;28407;51.830;5.684;2022-11-24T05:00:11;9.30;89.40
42755;DHT22;28407;51.830;5.684;2022-11-24T05:02:12;9.30;89.40
42755;DHT22;28407;51.830;5.684;2022-11-24T05:04:14;9.30;89.50
42755;DHT22;28407;51.830;5.684;2022-11-24T05:06:14;9.30;89.50
42755;DHT22;28407;51.830;5.684;2022-11-24T05:08:15;9.30;89.50
42755;DHT22;28407;51.830;5.684;2022-11-24T05:10:16;9.30;89.50
42755;DHT22;28407;51.830;5.684;2022-11-24T05:12:34;9.30;89.60
42755;DHT22;28407;51.830;5.684;2022-11-24T05:14:35;9.30;89.60
42755;DHT22;28407;51.830;5.684;2022-11-24T05:16:36;9.30;89.60
42755;DHT22;28407;51.830;5.684;2022-11-24T05:18:37;9.30;89.70
42755;DHT22;28407;51.830;5.684;2022-11-24T05:20:38;9.30;89.80
42755;DHT22;28407;51.830;5.684;2022-11-24T05:22:39;9.30;89.80
42755;DHT22;28407;51.830;5.684;2022-11-24T05:24:39;9.30;89.80
42755;DHT22;28407;51.830;5.684;2022-11-24T05:26:40;9.20;89.80
42755;DHT22;28407;51.830;5.684;2022-11-24T05:28:40;9.20;89.90
42755;DHT22;28407;51.830;5.684;2022-11-24T05:30:41;9.20;89.90
42755;DHT22;28407;51.830;5.684;2022-11-24T05:32:41;9.20;89.90
42755;DHT22;28407;51.830;5.684;2022-11-24T05:34:42;9.20;89.90
42755;DHT22;28407;51.830;5.684;2022-11-24T05:36:43;9.20;89.80
42755;DHT22;28407;51.830;5.684;2022-11-24T05:38:53;9.30;89.90
42755;DHT22;28407;51.830;5.684;2022-11-24T05:40:54;9.20;89.80
42755;DHT22;28407;51.830;5.684;2022-11-24T05:42:54;9.20;89.80
42755;DHT22;28407;51.830;5.684;2022-11-24T05:44:55;9.20;89.80
42755;DHT22;28407;51.830;5.684;2022-11-24T05:46:56;9.20;89.80
42755;DHT22;28407;51.830;5.684;2022-11-24T05:48:57;9.20;89.90
42755;DHT22;28407;51.830;5.684;2022-11-24T05:50:57;9.20;89.90
42755;DHT22;28407;51.830;5.684;2022-11-24T05:53:06;9.20;89.90
42755;DHT22;28407;51.830;5.684;2022-11-24T05:55:08;9.20;89.90
42755;DHT22;28407;51.830;5.684;2022-11-24T05:57:09;9.20;89.90
42755;DHT22;28407;51.830;5.684;2022-11-24T05:59:09;9.20;89.90
42755;DHT22;28407;51.830;5.684;2022-11-24T06:01:10;9.20;90.00
42755;DHT22;28407;51.830;5.684;2022-11-24T06:03:10;9.20;90.00
42755;DHT22;28407;51.830;5.684;2022-11-24T06:05:11;9.20;90.00
42755;DHT22;28407;51.830;5.684;2022-11-24T06:07:12;9.20;90.00
42755;DHT22;28407;51.830;5.684;2022-11-24T06:09:13;9.20;90.00
42755;DHT22;28407;51.830;5.684;2022-11-24T06:11:13;9.20;90.00
42755;DHT22;28407;51.830;5.684;2022-11-24T06:13:17;9.20;90.00
42755;DHT22;28407;51.830;5.684;2022-11-24T06:15:18;9.20;90.00
42755;DHT22;28407;51.830;5.684;2022-11-24T06:17:18;9.20;90.00
42755;DHT22;28407;51.830;5.684;2022-11-24T06:19:19;9.20;90.00
42755;DHT22;28407;51.830;5.684;2022-11-24T06:21:19;9.20;90.00
42755;DHT22;28407;51.830;5.684;2022-11-24T06:23:20;9.20;90.00
42755;DHT22;28407;51.830;5.684;2022-11-24T06:25:21;9.20;90.00
42755;DHT22;28407;51.830;5.684;2022-11-24T06:27:22;9.20;90.00
42755;DHT22;28407;51.830;5.684;2022-11-24T06:29:23;9.20;90.00
42755;DHT22;28407;51.830;5.684;2022-11-24T06:31:23;9.20;90.00
42755;DHT22;28407;51.830;5.684;2022-11-24T06:33:24;9.20;90.00
42755;DHT22;28407;51.830;5.684;2022-11-24T06:35:24;9.20;90.00
42755;DHT22;28407;51.830;5.684;2022-11-24T06:37:25;9.20;90.00
42755;DHT22;28407;51.830;5.684;2022-11-24T06:39:26;9.20;90.10
42755;DHT22;28407;51.830;5.684;2022-11-24T06:41:26;9.20;90.00
42755;DHT22;28407;51.830;5.684;2022-11-24T06:43:28;9.20;90.00
42755;DHT22;28407;51.830;5.684;2022-11-24T06:45:28;9.20;90.00
42755;DHT22;28407;51.830;5.684;2022-11-24T06:47:29;9.20;90.00
42755;DHT22;28407;51.830;5.684;2022-11-24T06:49:30;9.20;90.10
42755;DHT22;28407;51.830;5.684;2022-11-24T06:51:30;9.20;90.10
42755;DHT22;28407;51.830;5.684;2022-11-24T06:53:32;9.20;90.00
42755;DHT22;28407;51.830;5.684;2022-11-24T06:55:38;9.20;90.00
42755;DHT22;28407;51.830;5.684;2022-11-24T06:57:38;9.20;90.00
42755;DHT22;28407;51.830;5.684;2022-11-24T06:59:39;9.20;90.00
42755;DHT22;28407;51.830;5.684;2022-11-24T07:01:40;9.20;90.00
42755;DHT22;28407;51.830;5.684;2022-11-24T07:03:40;9.20;90.10
42755;DHT22;28407;51.830;5.684;2022-11-24T07:05:42;9.20;90.10
42755;DHT22;28407;51.830;5.684;2022-11-24T07:07:43;9.20;90.10
42755;DHT22;28407;51.830;5.684;2022-11-24T07:09:43;9.20;90.00
42755;DHT22;28407;51.830;5.684;2022-11-24T07:11:44;9.30;90.10
42755;DHT22;28407;51.830;5.684;2022-11-24T07:13:45;9.30;90.00
42755;DHT22;28407;51.830;5.684;2022-11-24T07:15:46;9.30;90.00
42755;DHT22;28407;51.830;5.684;2022-11-24T07:17:47;9.30;90.00
42755;DHT22;28407;51.830;5.684;2022-11-24T07:19:47;9.30;90.00
42755;DHT22;28407;51.830;5.684;2022-11-24T07:21:48;9.30;90.00
42755;DHT22;28407;51.830;5.684;2022-11-24T07:23:50;9.30;90.00
42755;DHT22;28407;51.830;5.684;2022-11-24T07:25:50;9.30;90.10
42755;DHT22;28407;51.830;5.684;2022-11-24T07:27:57;9.30;90.00
42755;DHT22;28407;51.830;5.684;2022-11-24T07:29:58;9.30;90.00
42755;DHT22;28407;51.830;5.684;2022-11-24T07:31:59;9.40;90.00
42755;DHT22;28407;51.830;5.684;2022-11-24T07:33:59;9.40;90.00
42755;DHT22;28407;51.830;5.684;2022-11-24T07:36:01;9.40;90.00
42755;DHT22;28407;51.830;5.684;2022-11-24T07:38:02;9.40;90.00
42755;DHT22;28407;51.830;5.684;2022-11-24T07:40:03;9.40;90.00
42755;DHT22;28407;51.830;5.684;2022-11-24T07:42:03;9.40;90.00
42755;DHT22;28407;51.830;5.684;2022-11-24T07:44:04;9.40;90.00
42755;DHT22;28407;51.830;5.684;2022-11-24T07:46:09;9.40;90.00
42755;DHT22;28407;51.830;5.684;2022-11-24T07:48:09;9.40;89.90
42755;DHT22;28407;51.830;5.684;2022-11-24T07:50:11;9.40;89.90
42755;DHT22;28407;51.830;5.684;2022-11-24T07:52:12;9.40;89.90
42755;DHT22;28407;51.830;5.684;2022-11-24T07:54:12;9.40;89.90
42755;DHT22;28407;51.830;5.684;2022-11-24T07:56:13;9.50;90.00
42755;DHT22;28407;51.830;5.684;2022-11-24T07:58:14;9.50;89.90
42755;DHT22;28407;51.830;5.684;2022-11-24T08:00:15;9.40;89.90
42755;DHT22;28407;51.830;5.684;2022-11-24T08:02:16;9.50;89.90
42755;DHT22;28407;51.830;5.684;2022-11-24T08:04:16;9.50;89.90
42755;DHT22;28407;51.830;5.684;2022-11-24T08:06:17;9.40;89.80
42755;DHT22;28407;51.830;5.684;2022-11-24T08:08:18;9.40;89.90
42755;DHT22;28407;51.830;5.684;2022-11-24T08:10:18;9.50;90.00
42755;DHT22;28407;51.830;5.684;2022-11-24T08:12:19;9.50;89.90
42755;DHT22;28407;51.830;5.684;2022-11-24T08:14:22;9.50;90.00
42755;DHT22;28407;51.830;5.684;2022-11-24T08:16:23;9.50;89.90
42755;DHT22;28407;51.830;5.684;2022-11-24T08:18:23;9.50;89.90
42755;DHT22;28407;51.830;5.684;2022-11-24T08:20:24;9.50;90.00
42755;DHT22;28407;51.830;5.684;2022-11-24T08:22:25;9.60;90.10
42755;DHT22;28407;51.830;5.684;2022-11-24T08:24:26;9.80;89.70
42755;DHT22;28407;51.830;5.684;2022-11-24T08:26:26;9.90;89.30
42755;DHT22;28407;51.830;5.684;2022-11-24T08:28:27;9.80;89.10
42755;DHT22;28407;51.830;5.684;2022-11-24T08:30:28;9.80;89.10
42755;DHT22;28407;51.830;5.684;2022-11-24T08:32:29;9.80;89.20
42755;DHT22;28407;51.830;5.684;2022-11-24T08:34:30;9.80;89.30
42755;DHT22;28407;51.830;5.684;2022-11-24T08:36:31;9.80;89.40
42755;DHT22;28407;51.830;5.684;2022-11-24T08:38:32;9.80;89.50
42755;DHT22;28407;51.830;5.684;2022-11-24T08:40:33;9.80;89.50
42755;DHT22;28407;51.830;5.684;2022-11-24T08:42:34;9.80;89.50
42755;DHT22;28407;51.830;5.684;2022-11-24T08:44:35;9.70;89.50
42755;DHT22;28407;51.830;5.684;2022-11-24T08:46:36;9.70;89.60
42755;DHT22;28407;51.830;5.684;2022-11-24T08:48:37;9.70;89.60
42755;DHT22;28407;51.830;5.684;2022-11-24T08:50:37;9.70;89.70
42755;DHT22;28407;51.830;5.684;2022-11-24T08:52:38;9.70;89.80
42755;DHT22;28407;51.830;5.684;2022-11-24T08:54:38;9.70;89.80
42755;DHT22;28407;51.830;5.684;2022-11-24T08:56:40;9.70;89.90
42755;DHT22;28407;51.830;5.684;2022-11-24T08:58:41;9.70;89.90
42755;DHT22;28407;51.830;5.684;2022-11-24T09:00:42;9.60;89.90
42755;DHT22;28407;51.830;5.684;2022-11-24T09:02:43;9.70;89.90
42755;DHT22;28407;51.830;5.684;2022-11-24T09:04:44;9.70;89.90
42755;DHT22;28407;51.830;5.684;2022-11-24T09:06:45;9.70;89.90
42755;DHT22;28407;51.830;5.684;2022-11-24T09:08:45;9.70;90.00
42755;DHT22;28407;51.830;5.684;2022-11-24T09:10:46;9.70;90.00
42755;DHT22;28407;51.830;5.684;2022-11-24T09:12:46;9.70;90.00
42755;DHT22;28407;51.830;5.684;2022-11-24T09:14:47;9.70;90.00
42755;DHT22;28407;51.830;5.684;2022-11-24T09:16:48;9.70;90.00
42755;DHT22;28407;51.830;5.684;2022-11-24T09:19:00;9.70;89.90
42755;DHT22;28407;51.830;5.684;2022-11-24T09:21:19;9.70;89.90
42755;DHT22;28407;51.830;5.684;2022-11-24T09:23:20;9.70;90.00
42755;DHT22;28407;51.830;5.684;2022-11-24T09:25:21;9.70;90.00
42755;DHT22;28407;51.830;5.684;2022-11-24T09:27:22;9.70;90.00
42755;DHT22;28407;51.830;5.684;2022-11-24T09:29:23;9.70;90.00
42755;DHT22;28407;51.830;5.684;2022-11-24T09:31:26;9.70;90.00
42755;DHT22;28407;51.830;5.684;2022-11-24T09:33:27;9.70;90.00
42755;DHT22;28407;51.830;5.684;2022-11-24T09:35:28;9.70;90.00
42755;DHT22;28407;51.830;5.684;2022-11-24T09:37:31;9.70;89.90
42755;DHT22;28407;51.830;5.684;2022-11-24T09:39:31;9.70;89.90
42755;DHT22;28407;51.830;5.684;2022-11-24T09:44:30;9.80;90.00
42755;DHT22;28407;51.830;5.684;2022-11-24T09:46:54;9.80;90.00
42755;DHT22;28407;51.830;5.684;2022-11-24T09:49:00;9.80;90.00
42755;DHT22;28407;51.830;5.684;2022-11-24T09:51:03;9.80;89.90
42755;DHT22;28407;51.830;5.684;2022-11-24T09:53:14;9.80;89.90
42755;DHT22;28407;51.830;5.684;2022-11-24T09:57:34;9.80;89.80
42755;DHT22;28407;51.830;5.684;2022-11-24T09:59:35;9.80;89.70
42755;DHT22;28407;51.830;5.684;2022-11-24T10:01:39;9.80;89.70
42755;DHT22;28407;51.830;5.684;2022-11-24T10:03:43;9.80;89.80
42755;DHT22;28407;51.830;5.684;2022-11-24T10:05:46;9.80;89.70
42755;DHT22;28407;51.830;5.684;2022-11-24T10:08:13;9.90;89.80
42755;DHT22;28407;51.830;5.684;2022-11-24T10:10:37;9.90;89.80
42755;DHT22;28407;51.830;5.684;2022-11-24T10:13:04;9.90;89.80
42755;DHT22;28407;51.830;5.684;2022-11-24T10:17:59;10.00;89.70
42755;DHT22;28407;51.830;5.684;2022-11-24T10:20:11;10.00;89.60
42755;DHT22;28407;51.830;5.684;2022-11-24T10:27:25;10.00;89.50
42755;DHT22;28407;51.830;5.684;2022-11-24T10:29:32;10.10;89.50
42755;DHT22;28407;51.830;5.684;2022-11-24T10:31:40;10.10;89.40
42755;DHT22;28407;51.830;5.684;2022-11-24T10:33:41;10.10;89.40
42755;DHT22;28407;51.830;5.684;2022-11-24T10:35:49;10.10;89.40
42755;DHT22;28407;51.830;5.684;2022-11-24T10:40:09;10.10;89.30
42755;DHT22;28407;51.830;5.684;2022-11-24T10:42:18;10.10;89.90
42755;DHT22;28407;51.830;5.684;2022-11-24T10:44:20;10.20;89.30
42755;DHT22;28407;51.830;5.684;2022-11-24T10:46:27;10.20;89.20
42755;DHT22;28407;51.830;5.684;2022-11-24T10:48:37;10.20;89.20
42755;DHT22;28407;51.830;5.684;2022-11-24T10:50:40;10.20;89.20
42755;DHT22;28407;51.830;5.684;2022-11-24T10:52:43;10.20;89.10
42755;DHT22;28407;51.830;5.684;2022-11-24T10:55:01;10.30;89.20
42755;DHT22;28407;51.830;5.684;2022-11-24T10:57:02;10.30;89.00
42755;DHT22;28407;51.830;5.684;2022-11-24T10:59:32;10.30;89.00
42755;DHT22;28407;51.830;5.684;2022-11-24T11:01:34;10.30;89.00
42755;DHT22;28407;51.830;5.684;2022-11-24T11:03:51;10.30;88.90
42755;DHT22;28407;51.830;5.684;2022-11-24T11:06:11;10.40;88.90
42755;DHT22;28407;51.830;5.684;2022-11-24T11:10:22;10.40;88.90
42755;DHT22;28407;51.830;5.684;2022-11-24T11:12:27;10.40;88.80
42755;DHT22;28407;51.830;5.684;2022-11-24T11:14:31;10.50;88.90
42755;DHT22;28407;51.830;5.684;2022-11-24T11:18:46;10.50;88.80
42755;DHT22;28407;51.830;5.684;2022-11-24T11:20:53;10.50;88.80
42755;DHT22;28407;51.830;5.684;2022-11-24T11:22:54;10.50;88.80
42755;DHT22;28407;51.830;5.684;2022-11-24T11:25:28;10.60;88.80
42755;DHT22;28407;51.830;5.684;2022-11-24T11:27:29;10.60;88.80
42755;DHT22;28407;51.830;5.684;2022-11-24T11:29:31;10.60;88.60
42755;DHT22;28407;51.830;5.684;2022-11-24T11:31:31;10.60;88.60
42755;DHT22;28407;51.830;5.684;2022-11-24T11:33:32;10.60;88.60
42755;DHT22;28407;51.830;5.684;2022-11-24T11:35:35;10.60;88.60
42755;DHT22;28407;51.830;5.684;2022-11-24T11:37:37;10.70;88.60
42755;DHT22;28407;51.830;5.684;2022-11-24T11:39:40;10.70;88.50
42755;DHT22;28407;51.830;5.684;2022-11-24T11:41:44;10.70;88.50
42755;DHT22;28407;51.830;5.684;2022-11-24T11:43:52;10.70;88.40
42755;DHT22;28407;51.830;5.684;2022-11-24T11:46:08;10.70;88.30
42755;DHT22;28407;51.830;5.684;2022-11-24T11:48:32;10.70;88.30
42755;DHT22;28407;51.830;5.684;2022-11-24T11:50:58;10.80;88.30
42755;DHT22;28407;51.830;5.684;2022-11-24T11:53:12;10.80;88.20
42755;DHT22;28407;51.830;5.684;2022-11-24T12:11:42;11.00;87.60
42755;DHT22;28407;51.830;5.684;2022-11-24T12:13:53;11.00;87.60
42755;DHT22;28407;51.830;5.684;2022-11-24T12:16:26;11.00;87.50
42755;DHT22;28407;51.830;5.684;2022-11-24T12:27:03;11.30;87.20
42755;DHT22;28407;51.830;5.684;2022-11-24T12:34:01;11.40;87.00
42755;DHT22;28407;51.830;5.684;2022-11-24T12:38:41;11.50;86.70
42755;DHT22;28407;51.830;5.684;2022-11-24T12:42:55;11.50;86.60
42755;DHT22;28407;51.830;5.684;2022-11-24T12:47:14;11.60;86.50
42755;DHT22;28407;51.830;5.684;2022-11-24T12:49:28;11.60;86.40
42755;DHT22;28407;51.830;5.684;2022-11-24T12:51:36;11.60;86.40
42755;DHT22;28407;51.830;5.684;2022-11-24T12:53:37;11.60;86.30
42755;DHT22;28407;51.830;5.684;2022-11-24T12:55:40;11.60;86.20
42755;DHT22;28407;51.830;5.684;2022-11-24T13:02:23;11.70;86.00
42755;DHT22;28407;51.830;5.684;2022-11-24T13:04:43;11.70;85.90
42755;DHT22;28407;51.830;5.684;2022-11-24T13:06:50;11.70;85.70
42755;DHT22;28407;51.830;5.684;2022-11-24T13:08:51;11.70;85.70
42755;DHT22;28407;51.830;5.684;2022-11-24T13:10:52;11.70;85.70
42755;DHT22;28407;51.830;5.684;2022-11-24T13:13:06;11.70;85.70
42755;DHT22;28407;51.830;5.684;2022-11-24T13:15:15;11.80;85.70
42755;DHT22;28407;51.830;5.684;2022-11-24T13:17:31;11.80;85.60
42755;DHT22;28407;51.830;5.684;2022-11-24T13:19:34;11.80;85.60
42755;DHT22;28407;51.830;5.684;2022-11-24T13:23:36;11.80;85.50
42755;DHT22;28407;51.830;5.684;2022-11-24T13:25:37;11.80;85.50
42755;DHT22;28407;51.830;5.684;2022-11-24T13:27:39;11.80;85.40
42755;DHT22;28407;51.830;5.684;2022-11-24T13:29:45;11.80;85.40
42755;DHT22;28407;51.830;5.684;2022-11-24T13:31:45;11.80;85.40
42755;DHT22;28407;51.830;5.684;2022-11-24T13:33:46;11.80;85.40
42755;DHT22;28407;51.830;5.684;2022-11-24T13:38:39;11.80;85.40
42755;DHT22;28407;51.830;5.684;2022-11-24T13:40:41;11.70;85.30
42755;DHT22;28407;51.830;5.684;2022-11-24T13:45:02;11.70;85.40
42755;DHT22;28407;51.830;5.684;2022-11-24T13:47:06;11.60;85.40
42755;DHT22;28407;51.830;5.684;2022-11-24T13:49:45;11.60;85.40
42755;DHT22;28407;51.830;5.684;2022-11-24T13:51:45;11.60;85.40
42755;DHT22;28407;51.830;5.684;2022-11-24T13:53:48;11.60;85.40
42755;DHT22;28407;51.830;5.684;2022-11-24T13:58:23;11.60;85.50
42755;DHT22;28407;51.830;5.684;2022-11-24T14:00:33;11.60;85.40
42755;DHT22;28407;51.830;5.684;2022-11-24T14:02:34;11.50;85.40
42755;DHT22;28407;51.830;5.684;2022-11-24T14:04:35;11.50;85.40
42755;DHT22;28407;51.830;5.684;2022-11-24T14:06:47;11.50;85.40
42755;DHT22;28407;51.830;5.684;2022-11-24T14:08:54;11.50;85.40
42755;DHT22;28407;51.830;5.684;2022-11-24T14:10:56;11.50;85.40
42755;DHT22;28407;51.830;5.684;2022-11-24T14:15:25;11.50;85.40
42755;DHT22;28407;51.830;5.684;2022-11-24T14:17:28;11.40;85.40
42755;DHT22;28407;51.830;5.684;2022-11-24T14:19:29;11.40;85.40
42755;DHT22;28407;51.830;5.684;2022-11-24T14:21:36;11.40;85.40
42755;DHT22;28407;51.830;5.684;2022-11-24T14:23:41;11.40;85.40
42755;DHT22;28407;51.830;5.684;2022-11-24T14:25:47;11.40;85.50
42755;DHT22;28407;51.830;5.684;2022-11-24T14:27:48;11.40;85.50